createdAt,value
2023-01-30T00:01:02.207Z,68.96
2023-01-30T00:06:33.101Z,68.58
2023-01-30T00:12:04.317Z,68.53
2023-01-30T00:17:35.951Z,68.52
2023-01-30T00:23:07.011Z,68.58
2023-01-30T00:28:38.281Z,68.97
2023-01-30T00:34:09.291Z,69.09
2023-01-30T00:39:40.253Z,69.26
2023-01-30T00:45:30.958Z,69.15
2023-01-30T00:51:02.663Z,68.79
2023-01-30T00:56:34.119Z,68.96
2023-01-30T01:02:05.267Z,68.45
2023-01-30T01:07:38.474Z,69.09
2023-01-30T01:13:10.870Z,69.01
2023-01-30T01:18:41.990Z,69.26
2023-01-30T01:24:14.729Z,68.31
2023-01-30T01:29:46.017Z,68.84
2023-01-30T01:35:17.564Z,68.62
2023-01-30T01:41:06.553Z,68.88
2023-01-30T01:46:55.963Z,68.80
2023-01-30T01:52:27.397Z,68.60
2023-01-30T01:58:05.329Z,68.85
2023-01-30T02:03:42.113Z,69.02
2023-01-30T02:09:13.458Z,69.05
2023-01-30T02:14:45.034Z,69.01
2023-01-30T02:20:48.942Z,68.98
2023-01-30T02:26:47.664Z,69.09
2023-01-30T02:32:25.072Z,69.00
2023-01-30T02:38:10.910Z,68.95
2023-01-30T02:44:08.601Z,68.97
2023-01-30T02:49:43.434Z,68.97
2023-01-30T02:55:24.071Z,69.29
2023-01-30T03:01:33.584Z,69.13
2023-01-30T03:07:23.292Z,69.07
2023-01-30T03:13:20.973Z,69.24
2023-01-30T03:18:53.423Z,69.51
2023-01-30T03:24:24.914Z,69.41
2023-01-30T03:29:56.101Z,69.75
2023-01-30T03:35:27.466Z,69.10
2023-01-30T03:40:58.581Z,69.46
2023-01-30T03:46:30.687Z,69.25
2023-01-30T03:52:02.455Z,69.47
2023-01-30T03:57:33.586Z,69.20
2023-01-30T04:03:05.603Z,69.51
2023-01-30T04:08:37.037Z,69.11
2023-01-30T04:14:09.389Z,69.20
2023-01-30T04:19:50.465Z,69.21
2023-01-30T04:25:22.451Z,69.40
2023-01-30T04:30:54.069Z,69.44
2023-01-30T04:36:44.027Z,69.34
2023-01-30T04:42:16.953Z,69.47
2023-01-30T04:48:02.062Z,69.47
2023-01-30T04:53:34.611Z,69.44
2023-01-30T04:59:06.039Z,69.61
2023-01-30T05:04:42.558Z,69.69
2023-01-30T05:10:13.877Z,69.55
2023-01-30T05:15:45.355Z,69.85
2023-01-30T05:21:19.280Z,69.90
2023-01-30T05:26:50.625Z,69.94
2023-01-30T05:32:21.814Z,70.00
2023-01-30T05:37:53.096Z,70.01
2023-01-30T05:43:24.314Z,70.01
2023-01-30T05:48:55.721Z,69.86
2023-01-30T05:54:26.881Z,69.94
2023-01-30T05:59:57.904Z,70.20
2023-01-30T06:05:29.151Z,70.19
2023-01-30T06:11:06.035Z,70.22
2023-01-30T06:16:36.988Z,70.22
2023-01-30T06:22:08.441Z,70.60
2023-01-30T06:27:40.173Z,70.56
2023-01-30T06:33:11.767Z,70.57
2023-01-30T06:38:42.900Z,70.61
2023-01-30T06:44:14.327Z,70.75
2023-01-30T06:49:45.355Z,70.71
2023-01-30T06:55:19.605Z,70.86
2023-01-30T07:00:51.462Z,71.07
2023-01-30T07:06:23.068Z,71.10
2023-01-30T07:11:54.346Z,71.48
2023-01-30T07:17:25.913Z,71.69
2023-01-30T07:22:57.268Z,71.61
2023-01-30T07:28:28.457Z,71.72
2023-01-30T07:33:59.804Z,71.77
2023-01-30T07:39:31.240Z,71.63
2023-01-30T07:45:02.628Z,71.86
2023-01-30T07:50:33.735Z,71.69
2023-01-30T07:56:08.958Z,71.48
2023-01-30T08:01:40.524Z,71.58
2023-01-30T08:07:11.883Z,71.93
2023-01-30T08:12:43.034Z,71.91
2023-01-30T08:18:14.000Z,71.87
2023-01-30T08:23:45.319Z,71.91
2023-01-30T08:29:17.375Z,72.21
2023-01-30T08:34:48.742Z,72.29
2023-01-30T08:40:20.036Z,72.17
2023-01-30T08:45:54.816Z,72.41
2023-01-30T08:51:26.069Z,72.55
2023-01-30T08:56:57.422Z,72.99
2023-01-30T09:02:28.820Z,72.98
2023-01-30T09:08:00.356Z,73.20
2023-01-30T09:13:32.541Z,73.20
2023-01-30T09:19:03.835Z,73.12
2023-01-30T09:24:35.099Z,73.81
2023-01-30T09:30:07.496Z,73.34
2023-01-30T09:35:38.497Z,73.89
2023-01-30T09:41:41.454Z,73.67
2023-01-30T09:47:14.364Z,73.90
2023-01-30T09:53:03.702Z,73.80
2023-01-30T09:58:59.824Z,74.14
2023-01-30T10:04:35.230Z,74.69
2023-01-30T10:10:11.167Z,74.32
2023-01-30T10:15:45.460Z,74.54
2023-01-30T10:21:26.948Z,74.51
2023-01-30T10:26:58.540Z,74.57
2023-01-30T10:32:32.760Z,74.46
2023-01-30T10:38:08.220Z,74.33
2023-01-30T10:43:46.075Z,74.39
2023-01-30T10:49:24.281Z,74.56
2023-01-30T10:55:10.566Z,74.26
2023-01-30T11:01:08.544Z,74.45
2023-01-30T11:06:39.630Z,74.38
2023-01-30T11:12:11.505Z,74.92
2023-01-30T11:17:43.319Z,74.84
2023-01-30T11:23:35.727Z,74.71
2023-01-30T11:29:32.894Z,74.43
2023-01-30T11:35:07.094Z,74.45
2023-01-30T11:40:40.781Z,74.02
2023-01-30T11:46:13.575Z,74.04
2023-01-30T11:51:46.719Z,73.79
2023-01-30T11:57:19.639Z,74.53
2023-01-30T12:02:53.418Z,74.04
2023-01-30T12:08:42.733Z,74.14
2023-01-30T12:14:36.779Z,74.13
2023-01-30T12:20:20.088Z,73.97
2023-01-30T12:26:21.323Z,74.11
2023-01-30T12:32:11.960Z,74.03
2023-01-30T12:37:43.424Z,73.93
2023-01-30T12:43:39.321Z,74.33
2023-01-30T12:49:28.755Z,74.58
2023-01-30T12:55:41.496Z,74.39
2023-01-30T13:01:29.962Z,74.71
2023-01-30T13:07:16.320Z,74.59
2023-01-30T13:13:09.265Z,74.46
2023-01-30T13:18:45.865Z,74.82
2023-01-30T13:24:25.270Z,74.56
2023-01-30T13:29:58.420Z,74.89
2023-01-30T13:35:33.879Z,74.54
2023-01-30T13:41:05.935Z,74.65
2023-01-30T13:46:38.552Z,74.72
2023-01-30T13:52:19.059Z,75.24
2023-01-30T13:57:51.154Z,74.79
2023-01-30T14:03:33.302Z,75.49
2023-01-30T14:09:29.815Z,74.90
2023-01-30T14:15:29.286Z,75.03
2023-01-30T14:21:14.088Z,74.88
2023-01-30T14:26:48.773Z,75.15
2023-01-30T14:32:19.971Z,74.68
2023-01-30T14:37:52.144Z,75.21
2023-01-30T14:43:26.061Z,75.41
2023-01-30T14:49:07.088Z,75.43
2023-01-30T14:54:42.952Z,75.42
2023-01-30T15:00:21.933Z,75.08
2023-01-30T15:05:53.132Z,75.17
2023-01-30T15:11:29.099Z,75.64
2023-01-30T15:17:05.857Z,75.86
2023-01-30T15:23:16.388Z,75.42
2023-01-30T15:29:22.488Z,75.30
2023-01-30T15:35:03.086Z,75.04
2023-01-30T15:40:34.441Z,75.35
2023-01-30T15:46:08.859Z,75.20
2023-01-30T15:51:40.359Z,75.25
2023-01-30T15:57:18.368Z,75.31
2023-01-30T16:02:49.864Z,74.98
2023-01-30T16:08:29.288Z,74.93
2023-01-30T16:14:00.749Z,75.12
2023-01-30T16:19:37.951Z,75.21
2023-01-30T16:25:18.617Z,75.35
2023-01-30T16:31:01.059Z,74.89
2023-01-30T16:36:38.850Z,75.17
2023-01-30T16:42:23.738Z,75.34
2023-01-30T16:47:55.058Z,75.59
2023-01-30T16:53:31.326Z,75.30
2023-01-30T16:59:02.609Z,75.66
2023-01-30T17:04:34.500Z,75.20
2023-01-30T17:10:05.849Z,75.68
2023-01-30T17:15:37.799Z,75.43
2023-01-30T17:21:12.923Z,75.76
2023-01-30T17:26:45.595Z,75.39
2023-01-30T17:32:17.072Z,75.28
2023-01-30T17:37:59.721Z,76.02
2023-01-30T17:43:35.439Z,75.85
2023-01-30T17:49:07.472Z,75.84
2023-01-30T17:54:38.799Z,75.99
2023-01-30T18:00:16.165Z,76.26
2023-01-30T18:05:47.270Z,75.76
2023-01-30T18:11:20.304Z,75.66
2023-01-30T18:16:52.718Z,75.71
2023-01-30T18:22:24.427Z,75.91
2023-01-30T18:27:55.444Z,76.03
2023-01-30T18:33:26.563Z,75.63
2023-01-30T18:38:57.797Z,75.59
2023-01-30T18:44:29.063Z,76.04
2023-01-30T18:50:00.008Z,75.56
2023-01-30T18:55:31.439Z,76.16
2023-01-30T19:01:14.423Z,75.85
2023-01-30T19:06:46.104Z,75.82
2023-01-30T19:12:36.216Z,75.52
2023-01-30T19:18:07.358Z,76.33
2023-01-30T19:23:39.122Z,75.48
2023-01-30T19:29:10.451Z,75.45
2023-01-30T19:34:41.473Z,75.72
2023-01-30T19:40:12.822Z,76.08
2023-01-30T19:45:43.924Z,75.95
2023-01-30T19:51:24.298Z,75.49
2023-01-30T19:56:55.716Z,76.04
2023-01-30T20:02:31.608Z,75.63
2023-01-30T20:08:03.037Z,75.97
2023-01-30T20:13:38.368Z,75.99
2023-01-30T20:19:14.311Z,75.63
2023-01-30T20:24:45.402Z,75.55
2023-01-30T20:30:17.433Z,76.37
2023-01-30T20:35:49.177Z,75.76
2023-01-30T20:41:22.723Z,76.05
2023-01-30T20:46:53.899Z,75.90
2023-01-30T20:52:25.413Z,76.13
2023-01-30T20:57:56.380Z,75.50
2023-01-30T21:03:27.766Z,75.78
2023-01-30T21:08:59.343Z,75.94
2023-01-30T21:14:30.503Z,75.66
2023-01-30T21:20:01.525Z,76.14
2023-01-30T21:25:32.576Z,76.51
2023-01-30T21:31:15.685Z,76.27
2023-01-30T21:37:07.389Z,76.36
2023-01-30T21:42:57.511Z,76.68
2023-01-30T21:48:28.981Z,76.71
2023-01-30T21:54:03.760Z,76.87
2023-01-30T21:59:35.330Z,76.78
2023-01-30T22:05:07.270Z,76.15
2023-01-30T22:10:38.684Z,76.49
2023-01-30T22:16:12.176Z,76.70
2023-01-30T22:21:43.036Z,76.50
2023-01-30T22:27:16.499Z,76.70
2023-01-30T22:32:47.595Z,77.08
2023-01-30T22:38:20.399Z,77.39
2023-01-30T22:43:55.535Z,77.00
2023-01-30T22:49:26.774Z,77.12
2023-01-30T22:54:57.918Z,76.85
2023-01-30T23:00:28.911Z,77.21
2023-01-30T23:06:02.006Z,77.14
2023-01-30T23:11:39.089Z,76.47
2023-01-30T23:17:29.045Z,76.91
2023-01-30T23:23:00.291Z,76.62
2023-01-30T23:28:31.773Z,77.18
2023-01-30T23:34:06.455Z,76.63
2023-01-30T23:39:37.679Z,77.16
2023-01-30T23:45:09.477Z,76.87
2023-01-30T23:50:42.309Z,77.16
2023-01-30T23:56:14.857Z,76.82
